Time;durP1;ratioP1;P1;durP2;ratioP2;P2;SDS_P1;SDS_P2;PMS_P1;PMS_P2;Temp;Humidity;BMP_temperature;BMP_pressure;BME280_temperature;BME280_humidity;BME280_pressure;Samples;Min_cycle;Max_cycle;Signal;HPM_P1;HPM_P2
2021/04/08 00:00:09;;;;;;;9.63;4.73;;;0.50;99.90;;;;;;4158270;28;20308;-63
2021/04/08 00:02:11;;;;;;;10.67;5.37;;;0.50;99.90;;;;;;4156066;28;20298;-63
2021/04/08 00:04:12;;;;;;;13.30;6.30;;;0.50;99.90;;;;;;4157539;28;20333;-64
2021/04/08 00:06:13;;;;;;;13.50;5.43;;;0.40;99.90;;;;;;4156939;28;20369;-64
2021/04/08 00:08:14;;;;;;;11.93;5.23;;;0.40;99.90;;;;;;4158118;28;20286;-64
2021/04/08 00:10:16;;;;;;;9.93;5.60;;;0.30;99.90;;;;;;4157010;28;20341;-64
2021/04/08 00:12:17;;;;;;;13.90;4.30;;;0.30;99.90;;;;;;4157829;28;20270;-64
2021/04/08 00:14:18;;;;;;;8.10;4.57;;;0.30;99.90;;;;;;4157768;28;20267;-62
2021/04/08 00:16:19;;;;;;;7.03;4.10;;;0.30;99.90;;;;;;4157232;28;20282;-64
2021/04/08 00:18:20;;;;;;;8.27;4.63;;;0.20;99.90;;;;;;4157511;28;20278;-64
2021/04/08 00:20:22;;;;;;;7.93;3.93;;;0.20;99.90;;;;;;4157428;28;20309;-64
2021/04/08 00:22:23;;;;;;;6.83;4.20;;;0.20;99.90;;;;;;4158022;28;20303;-63
2021/04/08 00:24:24;;;;;;;7.77;4.33;;;0.20;99.90;;;;;;4157229;28;20337;-64
2021/04/08 00:26:26;;;;;;;5.63;3.80;;;0.20;99.90;;;;;;4156841;28;20841;-64
2021/04/08 00:28:27;;;;;;;7.50;3.67;;;0.20;99.90;;;;;;4155961;28;20321;-65
2021/04/08 00:30:28;;;;;;;8.03;4.50;;;0.20;99.90;;;;;;4158158;28;20271;-62
2021/04/08 00:32:29;;;;;;;8.17;3.83;;;0.20;99.90;;;;;;4157253;28;20674;-65
2021/04/08 00:34:30;;;;;;;6.63;3.70;;;0.20;99.90;;;;;;4157777;28;20325;-63
2021/04/08 00:36:31;;;;;;;6.70;3.67;;;0.20;99.90;;;;;;4157317;28;20262;-64
2021/04/08 00:38:32;;;;;;;4.93;3.27;;;0.10;99.90;;;;;;4157633;28;20267;-64
2021/04/08 00:40:33;;;;;;;7.30;3.70;;;0.10;99.90;;;;;;4169022;28;20274;-64
2021/04/08 00:42:35;;;;;;;7.20;3.93;;;0.10;99.90;;;;;;4157200;28;21293;-63
2021/04/08 00:44:36;;;;;;;10.97;3.93;;;0.10;99.90;;;;;;4157669;28;20762;-63
2021/04/08 00:46:37;;;;;;;8.83;5.20;;;0.10;99.90;;;;;;4156485;28;20690;-64
2021/04/08 00:48:38;;;;;;;6.93;4.40;;;0.00;99.90;;;;;;4157168;28;20333;-65
2021/04/08 00:50:39;;;;;;;10.27;4.93;;;-0.10;99.90;;;;;;4157266;28;20718;-62
2021/04/08 00:52:45;;;;;;;8.97;4.50;;;-0.10;99.90;;;;;;4157405;28;20321;-63
2021/04/08 00:54:46;;;;;;;9.87;4.37;;;-0.20;99.90;;;;;;4156895;28;20283;-63
2021/04/08 00:56:48;;;;;;;7.83;4.97;;;-0.30;99.90;;;;;;4156940;28;20283;-63
2021/04/08 00:58:50;;;;;;;7.70;4.63;;;-0.30;99.90;;;;;;4156868;28;20424;-63
2021/04/08 01:00:52;;;;;;;8.77;4.50;;;-0.30;99.90;;;;;;4157059;28;20971;-61
2021/04/08 01:02:53;;;;;;;9.43;5.40;;;-0.30;99.90;;;;;;4156036;28;20294;-62
2021/04/08 01:04:54;;;;;;;9.13;4.70;;;-0.30;99.90;;;;;;4156400;28;20287;-64
2021/04/08 01:06:55;;;;;;;8.87;4.73;;;-0.30;99.90;;;;;;4155895;28;20334;-64
2021/04/08 01:08:57;;;;;;;15.60;6.03;;;-0.30;99.90;;;;;;4157046;28;20309;-63
2021/04/08 01:11:00;;;;;;;12.97;5.90;;;-0.20;99.90;;;;;;4156712;28;20283;-64
2021/04/08 01:13:03;;;;;;;8.70;5.67;;;-0.30;99.90;;;;;;4157509;28;20266;-64
2021/04/08 01:15:07;;;;;;;11.93;6.07;;;-0.30;99.90;;;;;;4154924;28;20740;-66
2021/04/08 01:17:18;;;;;;;9.83;5.40;;;-0.30;99.90;;;;;;4155920;28;20286;-63
2021/04/08 01:19:56;;;;;;;10.87;5.07;;;-0.30;99.90;;;;;;4154841;28;20290;-63
2021/04/08 01:22:11;;;;;;;11.97;6.13;;;-0.50;99.90;;;;;;4156786;28;20286;-62
2021/04/08 01:24:37;;;;;;;15.20;5.63;;;-0.70;99.90;;;;;;4156280;28;20313;-66
2021/04/08 01:27:07;;;;;;;8.80;5.57;;;-0.90;99.90;;;;;;4156782;28;20747;-63
2021/04/08 01:29:31;;;;;;;16.80;5.88;;;-1.00;99.90;;;;;;4156085;28;20259;-64
2021/04/08 01:31:32;;;;;;;11.87;6.30;;;-1.00;99.90;;;;;;4140175;28;20085;-64
2021/04/08 01:33:44;;;;;;;14.63;6.23;;;-1.00;99.90;;;;;;4140110;28;20283;-64
2021/04/08 01:35:48;;;;;;;11.47;6.27;;;-1.00;99.90;;;;;;4154393;28;20329;-63
2021/04/08 01:37:57;;;;;;;9.90;6.20;;;-1.00;99.90;;;;;;4156022;28;20321;-65
2021/04/08 01:40:00;;;;;;;12.00;6.97;;;-1.00;99.90;;;;;;4155766;28;21151;-63
2021/04/08 01:42:02;;;;;;;9.27;5.70;;;-1.00;99.90;;;;;;4155432;28;20310;-64
2021/04/08 01:44:07;;;;;;;15.73;6.07;;;-1.10;99.90;;;;;;4156137;28;20721;-64
2021/04/08 01:46:09;;;;;;;13.67;6.30;;;-1.20;99.90;;;;;;4155378;28;20349;-63
2021/04/08 01:48:13;;;;;;;12.73;5.67;;;-1.30;99.90;;;;;;4155785;28;20278;-63
2021/04/08 01:50:16;;;;;;;16.37;6.70;;;-1.40;99.90;;;;;;4155930;28;20270;-64
2021/04/08 01:52:19;;;;;;;16.47;7.47;;;-1.50;99.90;;;;;;4156761;28;20278;-63
2021/04/08 01:54:23;;;;;;;25.07;8.03;;;-1.50;99.90;;;;;;4156114;28;20283;-64
2021/04/08 01:56:32;;;;;;;16.70;9.07;;;-1.50;99.90;;;;;;4155972;28;20270;-64
2021/04/08 01:58:34;;;;;;;15.80;7.07;;;-1.50;99.90;;;;;;4155213;28;20275;-63
2021/04/08 02:00:36;;;;;;;15.37;7.90;;;-1.50;99.90;;;;;;4155925;28;20267;-63
2021/04/08 02:02:40;;;;;;;14.20;7.97;;;-1.40;99.90;;;;;;4155662;28;20763;-64
2021/04/08 02:04:43;;;;;;;21.77;8.73;;;-1.50;99.90;;;;;;4155868;28;20279;-63
2021/04/08 02:06:47;;;;;;;13.97;7.20;;;-1.40;99.90;;;;;;4155865;28;20981;-65
2021/04/08 02:08:51;;;;;;;24.63;8.60;;;-1.40;99.90;;;;;;4156200;28;20325;-64
2021/04/08 02:10:54;;;;;;;13.07;7.17;;;-1.40;99.90;;;;;;4155355;28;20263;-63
2021/04/08 02:12:57;;;;;;;15.00;8.03;;;-1.40;99.90;;;;;;4155875;28;20271;-64
2021/04/08 02:14:59;;;;;;;14.83;7.83;;;-1.30;99.90;;;;;;4155791;28;20286;-64
2021/04/08 02:17:02;;;;;;;15.23;8.40;;;-1.30;99.90;;;;;;4154923;28;20670;-66
2021/04/08 02:19:07;;;;;;;17.80;7.87;;;-1.30;99.90;;;;;;4156095;28;20348;-64
2021/04/08 02:21:09;;;;;;;13.60;6.67;;;-1.30;99.90;;;;;;4155601;28;21231;-65
2021/04/08 02:23:16;;;;;;;10.30;6.03;;;-1.30;99.90;;;;;;4155499;28;20303;-62
2021/04/08 02:25:19;;;;;;;9.53;5.73;;;-1.30;99.90;;;;;;4155528;28;20274;-63
2021/04/08 02:27:21;;;;;;;13.83;6.20;;;-1.30;99.90;;;;;;4155765;28;20316;-64
2021/04/08 02:29:22;;;;;;;9.77;6.07;;;-1.30;99.90;;;;;;4155448;28;20554;-63
2021/04/08 02:31:25;;;;;;;17.10;6.50;;;-1.30;99.90;;;;;;4155774;28;20326;-64
2021/04/08 02:33:28;;;;;;;24.73;10.80;;;-1.20;99.90;;;;;;4154796;28;20364;-62
2021/04/08 02:35:29;;;;;;;12.23;7.10;;;-1.20;99.90;;;;;;4156111;28;20329;-63
2021/04/08 02:37:30;;;;;;;15.50;6.83;;;-1.30;99.90;;;;;;4154919;28;20833;-66
2021/04/08 02:39:31;;;;;;;12.03;6.47;;;-1.20;99.90;;;;;;4155990;28;20263;-64
2021/04/08 02:41:41;;;;;;;12.70;7.17;;;-1.20;99.90;;;;;;4155073;28;20278;-64
2021/04/08 02:43:42;;;;;;;17.80;7.83;;;-1.30;99.90;;;;;;4154730;28;20278;-62
2021/04/08 02:45:43;;;;;;;16.83;7.70;;;-1.30;99.90;;;;;;4154710;28;20720;-63
2021/04/08 02:47:44;;;;;;;19.50;9.73;;;-1.30;99.90;;;;;;4154838;28;20294;-63
2021/04/08 02:49:46;;;;;;;17.90;7.93;;;-1.30;99.90;;;;;;4155704;28;20271;-66
2021/04/08 02:52:00;;;;;;;20.20;9.67;;;-1.30;99.90;;;;;;4156531;28;20364;-63
2021/04/08 02:54:17;;;;;;;20.13;9.07;;;-1.30;99.90;;;;;;4159004;28;20258;-64
2021/04/08 02:56:27;;;;;;;43.97;22.97;;;-1.40;99.90;;;;;;4159416;28;20329;-64
2021/04/08 02:58:31;;;;;;;32.72;16.52;;;-1.40;99.90;;;;;;4146139;28;20274;-65
2021/04/08 03:00:37;;;;;;;32.57;16.83;;;-1.40;99.90;;;;;;4158474;28;20037;-64
2021/04/08 03:02:42;;;;;;;90.17;39.93;;;-1.40;99.90;;;;;;4157847;28;20298;-64
2021/04/08 03:04:53;;;;;;;45.97;21.00;;;-1.50;99.90;;;;;;4158753;28;20275;-64
2021/04/08 03:06:55;;;;;;;19.13;9.50;;;-1.50;99.90;;;;;;4158382;28;20324;-63
2021/04/08 03:08:58;;;;;;;14.57;7.90;;;-1.50;99.90;;;;;;4158378;28;20356;-64
2021/04/08 03:11:05;;;;;;;24.27;9.70;;;-1.50;99.90;;;;;;4158670;28;20419;-64
2021/04/08 03:13:09;;;;;;;45.87;20.77;;;-1.50;99.90;;;;;;4158988;28;20321;-64
2021/04/08 03:15:11;;;;;;;94.17;37.40;;;-1.60;99.90;;;;;;4158631;28;20287;-64
2021/04/08 03:17:16;;;;;;;58.87;24.33;;;-1.60;99.90;;;;;;4157613;28;20823;-64
2021/04/08 03:19:26;;;;;;;22.77;11.03;;;-1.60;99.90;;;;;;4158707;28;20279;-64
2021/04/08 03:21:28;;;;;;;19.70;8.30;;;-1.70;99.90;;;;;;4157945;28;20283;-64
2021/04/08 03:23:32;;;;;;;24.93;11.33;;;-1.70;99.90;;;;;;4158662;28;20384;-62
2021/04/08 03:25:34;;;;;;;37.13;17.87;;;-1.80;99.90;;;;;;4158135;28;20283;-64
2021/04/08 03:27:37;;;;;;;47.87;19.73;;;-1.80;99.90;;;;;;4158288;28;20278;-65
2021/04/08 03:29:41;;;;;;;64.00;27.10;;;-1.80;99.90;;;;;;4158159;28;20356;-64
2021/04/08 03:31:43;;;;;;;53.00;20.67;;;-1.90;99.90;;;;;;4158229;28;20294;-63
2021/04/08 03:33:45;;;;;;;41.53;19.63;;;-1.90;99.90;;;;;;4157493;28;20282;-64
2021/04/08 03:35:47;;;;;;;38.00;18.03;;;-1.90;99.90;;;;;;4158450;28;21180;-64
2021/04/08 03:37:49;;;;;;;31.67;13.17;;;-1.90;99.90;;;;;;4158218;28;20308;-64
2021/04/08 03:39:51;;;;;;;26.60;12.53;;;-2.00;99.90;;;;;;4157976;28;20263;-65
2021/04/08 03:41:54;;;;;;;28.50;12.60;;;-2.00;99.90;;;;;;4158106;28;20325;-64
2021/04/08 03:43:55;;;;;;;30.70;13.73;;;-2.00;99.90;;;;;;4141650;28;20314;-64
2021/04/08 03:46:00;;;;;;;42.70;19.13;;;-2.00;99.90;;;;;;4146264;28;20770;-63
2021/04/08 03:48:02;;;;;;;61.73;27.47;;;-2.00;99.90;;;;;;4158081;28;20337;-64
2021/04/08 03:50:05;;;;;;;79.33;33.87;;;-2.00;99.90;;;;;;4165460;28;20339;-64
2021/04/08 03:52:08;;;;;;;86.50;39.23;;;-2.00;99.90;;;;;;4174082;28;20331;-64
2021/04/08 03:54:12;;;;;;;126.93;53.50;;;-1.90;99.90;;;;;;4158216;28;20325;-63
2021/04/08 03:56:15;;;;;;;122.10;51.20;;;-2.00;99.90;;;;;;4157383;28;20259;-64
2021/04/08 03:58:17;;;;;;;80.70;36.10;;;-1.90;99.90;;;;;;4158016;28;20271;-64
2021/04/08 04:00:20;;;;;;;52.80;22.83;;;-2.00;99.90;;;;;;4155122;28;20275;-63
2021/04/08 04:02:22;;;;;;;53.17;24.10;;;-1.90;99.90;;;;;;4155837;28;20298;-64
2021/04/08 04:04:24;;;;;;;74.87;33.07;;;-1.90;99.90;;;;;;4157211;28;20312;-63
2021/04/08 04:06:28;;;;;;;63.13;28.17;;;-1.80;99.90;;;;;;4157553;28;20348;-64
2021/04/08 04:08:31;;;;;;;58.13;27.17;;;-1.70;99.90;;;;;;4157131;28;20283;-63
2021/04/08 04:10:36;;;;;;;53.40;25.83;;;-1.60;99.90;;;;;;4157829;28;20287;-64
2021/04/08 04:12:39;;;;;;;49.37;21.83;;;-1.30;99.90;;;;;;4157194;28;20267;-64
2021/04/08 04:14:44;;;;;;;41.43;17.93;;;-1.10;99.90;;;;;;4157723;28;20279;-64
2021/04/08 04:16:46;;;;;;;25.00;11.00;;;-0.80;99.90;;;;;;4157048;28;20311;-64
2021/04/08 04:18:47;;;;;;;28.70;11.93;;;-0.50;99.90;;;;;;4156553;28;20770;-63
2021/04/08 04:20:49;;;;;;;28.03;12.20;;;-0.20;99.90;;;;;;4156991;28;20349;-62
2021/04/08 04:22:50;;;;;;;26.00;11.03;;;0.00;99.90;;;;;;4156773;28;20814;-63
2021/04/08 04:24:51;;;;;;;24.87;9.60;;;0.30;99.90;;;;;;4157488;28;20267;-62
2021/04/08 04:26:52;;;;;;;20.03;10.23;;;0.60;99.90;;;;;;4155894;28;20299;-63
2021/04/08 04:28:54;;;;;;;23.83;9.53;;;1.10;99.90;;;;;;4157197;28;20340;-63
2021/04/08 04:30:55;;;;;;;18.97;9.87;;;1.40;99.90;;;;;;4157411;28;20271;-64
2021/04/08 04:32:56;;;;;;;18.67;9.83;;;1.70;99.90;;;;;;4155611;28;20290;-62
2021/04/08 04:34:57;;;;;;;14.87;8.47;;;2.00;99.90;;;;;;4156014;28;20606;-65
2021/04/08 04:36:58;;;;;;;18.63;9.47;;;2.30;99.90;;;;;;4155366;28;20282;-64
2021/04/08 04:39:01;;;;;;;20.20;8.30;;;2.70;99.90;;;;;;4155394;28;20271;-63
2021/04/08 04:41:02;;;;;;;17.17;7.57;;;3.20;99.90;;;;;;4157074;28;20270;-63
2021/04/08 04:43:03;;;;;;;10.97;7.07;;;3.60;99.90;;;;;;4149181;28;20307;-65
2021/04/08 04:45:05;;;;;;;25.33;9.73;;;4.00;99.90;;;;;;4141010;28;20279;-64
2021/04/08 04:47:07;;;;;;;23.00;10.57;;;4.30;99.90;;;;;;4155547;28;20845;-63
2021/04/08 04:49:08;;;;;;;30.10;10.23;;;4.50;99.90;;;;;;4156746;28;20332;-63
2021/04/08 04:51:09;;;;;;;15.60;8.50;;;4.50;99.90;;;;;;4155251;28;20278;-63
2021/04/08 04:53:11;;;;;;;16.53;8.97;;;4.50;99.90;;;;;;4156147;28;20279;-64
2021/04/08 04:55:12;;;;;;;24.27;9.10;;;4.60;99.90;;;;;;4157028;28;20271;-62
2021/04/08 04:57:13;;;;;;;22.50;9.27;;;4.70;99.90;;;;;;4155802;28;20279;-61
2021/04/08 04:59:16;;;;;;;16.87;8.50;;;5.10;99.90;;;;;;4145283;28;20306;-64
2021/04/08 05:01:17;;;;;;;14.37;7.90;;;5.70;99.90;;;;;;4156588;28;20305;-65
2021/04/08 05:03:18;;;;;;;16.27;8.57;;;6.30;99.90;;;;;;4156870;28;20306;-63
2021/04/08 05:05:19;;;;;;;18.50;7.17;;;6.80;99.10;;;;;;4156511;28;20751;-65
2021/04/08 05:07:20;;;;;;;17.67;8.10;;;7.20;97.70;;;;;;4156677;28;20266;-64
2021/04/08 05:09:21;;;;;;;16.40;8.73;;;7.50;95.40;;;;;;4156260;28;20710;-64
2021/04/08 05:11:22;;;;;;;16.93;7.37;;;8.00;95.10;;;;;;4156593;28;20041;-64
2021/04/08 05:13:23;;;;;;;11.87;6.20;;;8.30;93.50;;;;;;4156014;28;20417;-63
2021/04/08 05:15:24;;;;;;;15.50;6.73;;;8.50;91.30;;;;;;4155900;28;20029;-64
2021/04/08 05:17:26;;;;;;;9.63;5.60;;;8.90;91.10;;;;;;4155885;28;20096;-62
2021/04/08 05:19:27;;;;;;;10.27;5.73;;;9.30;89.70;;;;;;4156553;28;20504;-67
2021/04/08 05:21:28;;;;;;;10.67;6.10;;;9.60;85.90;;;;;;4156182;28;20057;-65
2021/04/08 05:23:29;;;;;;;9.00;5.90;;;10.10;84.20;;;;;;4156091;28;20107;-66
2021/04/08 05:25:30;;;;;;;11.57;6.43;;;10.40;80.10;;;;;;4157012;28;20099;-68
2021/04/08 05:27:31;;;;;;;14.50;7.30;;;10.40;77.40;;;;;;4153808;28;20045;-65
2021/04/08 05:29:32;;;;;;;11.40;5.47;;;10.70;77.10;;;;;;4155939;28;20037;-66
2021/04/08 05:31:34;;;;;;;9.23;5.57;;;11.00;74.80;;;;;;4155388;28;20040;-64
2021/04/08 05:33:35;;;;;;;12.70;5.30;;;11.10;72.90;;;;;;4140047;28;20544;-60
2021/04/08 05:35:37;;;;;;;12.80;6.10;;;11.10;72.20;;;;;;4139841;28;20034;-62
2021/04/08 05:37:38;;;;;;;10.43;5.80;;;11.30;72.10;;;;;;4140014;28;20060;-63
2021/04/08 05:39:39;;;;;;;15.57;6.07;;;11.70;70.00;;;;;;4139495;28;20029;-63
2021/04/08 05:41:40;;;;;;;12.13;5.83;;;11.70;68.60;;;;;;4139555;28;20022;-62
2021/04/08 05:43:43;;;;;;;11.17;6.43;;;11.70;67.40;;;;;;4139535;28;20044;-61
2021/04/08 05:45:45;;;;;;;11.70;6.60;;;11.70;67.10;;;;;;4140277;28;20041;-63
2021/04/08 05:47:48;;;;;;;11.90;6.97;;;11.80;66.40;;;;;;4139684;28;20065;-64
2021/04/08 05:49:50;;;;;;;9.33;6.47;;;11.70;64.90;;;;;;4140198;28;20065;-64
2021/04/08 05:51:51;;;;;;;9.03;5.83;;;11.70;65.10;;;;;;4139642;28;20577;-66
2021/04/08 05:53:52;;;;;;;10.90;6.17;;;11.70;63.20;;;;;;4139618;28;20050;-67
2021/04/08 05:55:53;;;;;;;13.23;6.40;;;11.70;62.70;;;;;;4139655;28;20042;-67
2021/04/08 05:57:54;;;;;;;11.47;6.33;;;11.60;62.20;;;;;;4150159;28;20481;-66
2021/04/08 05:59:56;;;;;;;14.50;6.57;;;11.70;61.80;;;;;;4155939;28;20026;-66
2021/04/08 06:01:57;;;;;;;10.90;6.33;;;11.60;61.30;;;;;;4155920;28;20139;-69
2021/04/08 06:03:58;;;;;;;11.63;6.10;;;11.80;61.40;;;;;;4155501;28;20103;-64
2021/04/08 06:05:59;;;;;;;18.50;6.07;;;11.80;60.40;;;;;;4155870;28;20045;-64
2021/04/08 06:08:00;;;;;;;8.20;5.37;;;12.10;59.90;;;;;;4155607;28;20107;-65
2021/04/08 06:10:02;;;;;;;11.40;5.60;;;12.10;58.60;;;;;;4155265;28;20049;-65
2021/04/08 06:12:04;;;;;;;6.67;4.40;;;12.50;58.60;;;;;;4155600;28;20067;-65
2021/04/08 06:14:05;;;;;;;7.33;4.70;;;12.60;57.20;;;;;;4155888;28;20389;-67
2021/04/08 06:16:06;;;;;;;9.63;3.90;;;12.50;56.30;;;;;;4156107;28;20037;-66
2021/04/08 06:18:07;;;;;;;5.50;3.60;;;12.80;56.00;;;;;;4154705;28;20099;-63
2021/04/08 06:20:09;;;;;;;5.23;3.93;;;12.60;54.80;;;;;;4155631;28;20478;-64
2021/04/08 06:22:12;;;;;;;11.03;4.17;;;12.30;55.00;;;;;;4153554;28;20033;-65
2021/04/08 06:24:14;;;;;;;7.83;3.47;;;12.40;54.70;;;;;;4152255;28;20079;-64
2021/04/08 06:26:15;;;;;;;9.80;4.53;;;12.30;54.20;;;;;;4152974;28;20440;-63
2021/04/08 06:28:16;;;;;;;6.33;4.37;;;12.50;54.30;;;;;;4154798;28;20033;-66
2021/04/08 06:30:18;;;;;;;9.03;4.10;;;12.30;53.70;;;;;;4152699;28;20514;-64
2021/04/08 06:32:19;;;;;;;6.30;4.40;;;12.70;54.10;;;;;;4155286;28;20087;-63
2021/04/08 06:34:20;;;;;;;11.87;4.20;;;12.90;53.40;;;;;;4139280;28;20416;-62
2021/04/08 06:36:23;;;;;;;4.30;3.57;;;12.90;52.70;;;;;;4139414;28;20096;-62
2021/04/08 06:38:24;;;;;;;9.50;4.43;;;13.00;51.80;;;;;;4152991;28;20469;-63
2021/04/08 06:40:26;;;;;;;8.23;3.53;;;13.20;51.70;;;;;;4151722;28;20457;-62
2021/04/08 06:42:28;;;;;;;13.57;3.77;;;13.20;51.10;;;;;;4154491;28;20491;-62
2021/04/08 06:44:31;;;;;;;4.97;3.40;;;13.00;51.10;;;;;;4155609;28;20154;-63
2021/04/08 06:46:37;;;;;;;5.87;3.37;;;13.30;51.00;;;;;;4155328;28;20029;-64
2021/04/08 06:48:50;;;;;;;9.73;3.60;;;13.40;49.90;;;;;;4159829;28;20037;-65
2021/04/08 06:50:53;;;;;;;7.47;3.73;;;13.40;49.50;;;;;;4171611;28;20037;-63
2021/04/08 06:52:57;;;;;;;9.43;3.27;;;13.30;49.20;;;;;;4169446;28;20536;-63
2021/04/08 06:54:59;;;;;;;4.87;3.47;;;13.30;49.10;;;;;;4158322;28;20041;-63
2021/04/08 06:57:01;;;;;;;7.40;3.60;;;13.40;49.30;;;;;;4154392;28;20091;-62
2021/04/08 06:59:02;;;;;;;5.37;3.30;;;13.40;48.90;;;;;;4154742;28;20087;-63
2021/04/08 07:01:10;;;;;;;7.83;4.10;;;13.50;48.60;;;;;;4153907;28;20430;-62
2021/04/08 07:03:12;;;;;;;4.43;3.10;;;13.40;47.60;;;;;;4155371;28;20061;-64
2021/04/08 07:05:13;;;;;;;8.53;4.37;;;13.30;48.10;;;;;;4155525;28;20147;-62
2021/04/08 07:07:14;;;;;;;7.43;3.83;;;13.00;48.50;;;;;;4155075;28;20076;-64
2021/04/08 07:09:16;;;;;;;5.73;3.03;;;12.40;48.30;;;;;;4152003;28;20099;-62
2021/04/08 07:11:18;;;;;;;7.63;3.73;;;12.20;49.10;;;;;;4154883;28;20460;-62
2021/04/08 07:13:19;;;;;;;5.17;3.40;;;12.20;49.30;;;;;;4155146;28;20088;-63
2021/04/08 07:15:21;;;;;;;4.33;2.43;;;11.90;48.30;;;;;;4155142;28;20045;-62
2021/04/08 07:17:23;;;;;;;5.90;2.53;;;11.80;48.60;;;;;;4155718;28;20091;-62
2021/04/08 07:19:25;;;;;;;7.50;2.30;;;12.00;47.90;;;;;;4154921;28;20029;-62
2021/04/08 07:21:35;;;;;;;4.80;2.33;;;11.90;47.60;;;;;;4155625;28;20080;-63
2021/04/08 07:23:37;;;;;;;3.03;1.97;;;11.50;46.10;;;;;;4154368;28;20049;-63
2021/04/08 07:25:59;;;;;;;3.53;2.03;;;10.90;47.80;;;;;;4155479;28;20045;-63
2021/04/08 07:28:20;;;;;;;4.57;2.30;;;10.90;46.40;;;;;;4154767;28;20781;-62
2021/04/08 07:30:26;;;;;;;3.03;1.30;;;10.90;47.60;;;;;;4154721;28;20107;-64
2021/04/08 07:32:35;;;;;;;2.80;1.87;;;10.80;46.90;;;;;;4153313;28;20049;-62
2021/04/08 07:34:39;;;;;;;2.87;1.60;;;10.40;46.30;;;;;;4153147;28;20448;-63
2021/04/08 07:36:42;;;;;;;5.17;1.97;;;10.10;47.60;;;;;;4154897;28;20045;-62
2021/04/08 07:38:50;;;;;;;3.17;2.07;;;9.80;48.20;;;;;;4158014;28;20029;-64
2021/04/08 07:40:59;;;;;;;2.90;1.40;;;9.70;47.90;;;;;;4157277;28;20029;-61
2021/04/08 07:43:14;;;;;;;3.03;1.50;;;9.80;47.50;;;;;;4157923;28;20045;-61
2021/04/08 07:45:25;;;;;;;4.50;1.77;;;9.90;47.50;;;;;;4157755;28;20021;-62
2021/04/08 07:47:30;;;;;;;3.07;1.53;;;9.90;47.10;;;;;;4158346;28;20371;-56
2021/04/08 07:49:33;;;;;;;5.43;1.40;;;9.90;47.50;;;;;;4158209;28;20072;-64
2021/04/08 07:51:35;;;;;;;1.93;1.60;;;9.80;47.30;;;;;;4158730;28;20076;-65
2021/04/08 07:53:36;;;;;;;1.53;1.43;;;9.80;47.80;;;;;;4156806;28;20059;-62
2021/04/08 07:55:37;;;;;;;2.50;1.60;;;9.70;47.50;;;;;;4158668;28;20045;-61
2021/04/08 07:58:03;;;;;;;2.40;1.37;;;9.70;47.70;;;;;;4157468;28;20026;-62
2021/04/08 08:00:19;;;;;;;4.70;1.10;;;9.60;45.30;;;;;;4152248;28;20138;-65
2021/04/08 08:02:26;;;;;;;2.93;1.20;;;9.50;45.90;;;;;;4157871;28;20089;-63
2021/04/08 08:04:28;;;;;;;3.13;1.00;;;9.50;46.30;;;;;;4155052;28;20084;-62
2021/04/08 08:06:36;;;;;;;2.60;1.37;;;9.40;46.40;;;;;;4157659;28;20453;-62
2021/04/08 08:08:44;;;;;;;2.53;1.30;;;9.40;46.30;;;;;;4157838;28;20103;-62
2021/04/08 08:11:04;;;;;;;2.33;1.23;;;9.40;46.50;;;;;;4157607;28;20049;-62
2021/04/08 08:13:07;;;;;;;2.37;1.37;;;9.50;45.40;;;;;;4157881;28;20080;-62
2021/04/08 08:15:17;;;;;;;5.10;1.43;;;9.20;46.40;;;;;;4157139;28;20823;-61
2021/04/08 08:17:18;;;;;;;1.67;1.20;;;8.60;46.90;;;;;;4157877;28;20095;-62
2021/04/08 08:19:20;;;;;;;3.50;1.30;;;8.30;47.30;;;;;;4157259;28;20034;-62
2021/04/08 08:21:36;;;;;;;2.97;1.23;;;8.20;47.20;;;;;;4158428;28;20045;-61
2021/04/08 08:23:39;;;;;;;2.03;0.97;;;8.30;47.20;;;;;;4157353;28;20049;-62
2021/04/08 08:25:41;;;;;;;3.00;1.57;;;8.20;48.00;;;;;;4158255;28;20415;-62
2021/04/08 08:27:54;;;;;;;2.57;1.87;;;8.10;48.40;;;;;;4157405;28;20109;-61
2021/04/08 08:29:57;;;;;;;5.60;1.77;;;8.20;49.30;;;;;;4157884;28;20047;-61
2021/04/08 08:32:04;;;;;;;3.77;1.30;;;8.30;48.80;;;;;;4154113;28;20041;-62
2021/04/08 08:34:08;;;;;;;2.50;1.50;;;8.60;48.70;;;;;;4156446;28;20868;-61
2021/04/08 08:36:09;;;;;;;2.40;1.13;;;8.90;48.20;;;;;;4156644;28;20096;-62
2021/04/08 08:38:20;;;;;;;3.00;1.50;;;8.90;48.40;;;;;;4156500;28;20038;-62
2021/04/08 08:40:22;;;;;;;;;;;8.70;48.00;;;;;;4157985;28;20079;-63
2021/04/08 08:42:24;;;;;;;2.57;1.27;;;8.80;47.40;;;;;;4157163;28;19967;-62
2021/04/08 08:44:26;;;;;;;3.53;1.30;;;8.60;47.60;;;;;;4155707;28;20045;-62
2021/04/08 08:46:27;;;;;;;2.73;1.37;;;8.50;48.10;;;;;;4156483;28;20025;-62
2021/04/08 08:48:29;;;;;;;3.87;1.37;;;8.50;47.90;;;;;;4156420;28;20033;-63
2021/04/08 08:50:31;;;;;;;2.00;1.20;;;8.50;48.40;;;;;;4156535;28;20037;-64
2021/04/08 08:52:37;;;;;;;1.80;1.13;;;8.60;48.00;;;;;;4156894;28;20041;-63
2021/04/08 08:54:38;;;;;;;4.33;1.40;;;8.40;48.00;;;;;;4156970;28;20433;-63
2021/04/08 08:56:40;;;;;;;4.30;1.93;;;8.30;48.00;;;;;;4157742;28;20572;-63
2021/04/08 08:58:42;;;;;;;2.93;1.47;;;8.20;48.30;;;;;;4156976;28;20033;-62
2021/04/08 09:00:43;;;;;;;4.80;1.77;;;8.30;49.00;;;;;;4157356;28;20050;-63
2021/04/08 09:02:45;;;;;;;1.73;1.10;;;8.40;48.50;;;;;;4156021;28;20079;-61
2021/04/08 09:04:46;;;;;;;2.00;1.10;;;8.50;47.50;;;;;;4154547;28;20046;-62
2021/04/08 09:06:49;;;;;;;2.23;1.40;;;8.50;46.70;;;;;;4156910;28;20045;-62
2021/04/08 09:08:56;;;;;;;2.10;1.10;;;8.40;46.80;;;;;;4157084;28;20134;-61
2021/04/08 09:10:58;;;;;;;4.07;1.40;;;8.50;46.40;;;;;;4156832;28;20075;-62
2021/04/08 09:13:00;;;;;;;1.30;1.00;;;8.50;46.20;;;;;;4156992;28;20033;-63
2021/04/08 09:15:04;;;;;;;8.30;1.37;;;8.40;46.60;;;;;;4155917;28;20424;-62
2021/04/08 09:17:05;;;;;;;4.73;1.20;;;8.30;46.40;;;;;;4156489;28;20049;-62
2021/04/08 09:19:09;;;;;;;3.70;1.07;;;8.40;45.40;;;;;;4156192;28;20092;-63
2021/04/08 09:21:10;;;;;;;1.57;1.10;;;8.30;45.90;;;;;;4156141;28;20030;-61
2021/04/08 09:23:13;;;;;;;1.93;0.90;;;8.30;46.00;;;;;;4155515;28;20099;-62
2021/04/08 09:25:19;;;;;;;1.30;1.10;;;8.20;45.80;;;;;;4155934;28;20034;-62
2021/04/08 09:27:23;;;;;;;3.13;1.30;;;8.10;46.00;;;;;;4155685;28;20037;-62
2021/04/08 09:29:44;;;;;;;5.03;1.77;;;8.20;46.90;;;;;;4156218;28;20018;-62
2021/04/08 09:31:45;;;;;;;1.63;1.20;;;8.40;45.80;;;;;;4156022;28;20018;-63
2021/04/08 09:33:48;;;;;;;4.60;1.30;;;8.40;45.60;;;;;;4156035;28;20045;-63
2021/04/08 09:35:49;;;;;;;4.30;1.03;;;8.40;45.20;;;;;;4156370;28;20034;-62
2021/04/08 09:37:56;;;;;;;1.60;1.37;;;8.50;45.40;;;;;;4156260;28;20041;-62
2021/04/08 09:39:57;;;;;;;1.50;1.23;;;8.50;45.60;;;;;;4156384;28;20037;-62
2021/04/08 09:42:01;;;;;;;2.53;1.17;;;8.50;45.60;;;;;;4156163;28;20052;-63
2021/04/08 09:44:03;;;;;;;2.43;1.13;;;8.70;45.40;;;;;;4156733;28;20037;-62
2021/04/08 09:46:09;;;;;;;2.40;1.40;;;8.80;45.70;;;;;;4153927;28;20021;-62
2021/04/08 09:48:21;;;;;;;1.93;1.33;;;8.90;45.90;;;;;;4156387;28;20088;-64
2021/04/08 09:51:00;;;;;;;5.37;1.27;;;9.10;45.30;;;;;;4155771;28;20103;-63
2021/04/08 09:53:03;;;;;;;6.00;1.60;;;8.80;44.70;;;;;;4145710;28;20025;-62
2021/04/08 09:55:04;;;;;;;4.60;1.43;;;8.80;45.30;;;;;;4145066;28;20472;-60
2021/04/08 09:57:06;;;;;;;4.80;1.00;;;8.60;45.10;;;;;;4157325;28;20044;-61
2021/04/08 09:59:07;;;;;;;2.30;0.80;;;8.20;45.10;;;;;;4155917;28;20091;-62
2021/04/08 10:01:10;;;;;;;3.93;1.10;;;8.00;45.10;;;;;;4155603;28;20068;-62
2021/04/08 10:03:11;;;;;;;3.43;1.50;;;8.00;45.50;;;;;;4154565;28;20039;-63
2021/04/08 10:05:13;;;;;;;3.67;1.30;;;8.10;46.10;;;;;;4156024;28;20045;-63
2021/04/08 10:07:14;;;;;;;1.90;1.10;;;8.30;45.30;;;;;;4155664;28;20045;-61
2021/04/08 10:09:16;;;;;;;1.37;0.70;;;8.40;43.70;;;;;;4155344;28;20038;-62
2021/04/08 10:11:30;;;;;;;3.10;0.90;;;8.50;44.10;;;;;;4155217;28;20037;-62
2021/04/08 10:13:33;;;;;;;2.63;1.20;;;8.50;43.20;;;;;;4155567;28;20049;-62
2021/04/08 10:15:35;;;;;;;3.17;1.13;;;8.50;43.80;;;;;;4155239;28;20083;-62
2021/04/08 10:17:38;;;;;;;4.53;1.03;;;8.30;42.90;;;;;;4155474;28;20417;-61
2021/04/08 10:19:41;;;;;;;1.00;0.70;;;8.30;42.60;;;;;;4155572;28;20910;-62
2021/04/08 10:21:43;;;;;;;2.30;0.50;;;8.30;41.50;;;;;;4155806;28;20033;-64
2021/04/08 10:23:50;;;;;;;1.97;0.77;;;8.20;40.90;;;;;;4155324;28;20033;-61
2021/04/08 10:25:59;;;;;;;1.90;0.77;;;8.20;41.60;;;;;;4156070;28;20029;-62
2021/04/08 10:28:01;;;;;;;0.83;0.77;;;8.20;41.90;;;;;;4139085;28;20077;-64
2021/04/08 10:30:17;;;;;;;2.17;0.67;;;8.20;42.20;;;;;;4139323;28;20072;-62
2021/04/08 10:32:41;;;;;;;3.23;1.00;;;8.20;42.30;;;;;;4139279;28;20044;-62
2021/04/08 10:34:42;;;;;;;4.67;1.53;;;8.10;42.40;;;;;;4139699;28;20044;-62
2021/04/08 10:36:55;;;;;;;3.70;0.97;;;7.80;41.70;;;;;;4137920;28;20145;-62
2021/04/08 10:39:25;;;;;;;1.23;0.73;;;7.80;42.60;;;;;;4138390;28;20092;-62
2021/04/08 10:41:26;;;;;;;3.23;1.10;;;7.70;41.50;;;;;;4149956;28;20091;-61
2021/04/08 10:43:27;;;;;;;2.83;1.17;;;7.80;41.00;;;;;;4155494;28;20037;-63